Time;durP1;ratioP1;P1;durP2;ratioP2;P2;SDS_P1;SDS_P2;PMS_P1;PMS_P2;Temp;Humidity;BMP_temperature;BMP_pressure;BME280_temperature;BME280_humidity;BME280_pressure;Samples;Min_cycle;Max_cycle;Signal;HPM_P1;HPM_P2
2022/01/11 00:00:43;;;;;;;53.70;15.23;;;;;;;3.22;98.22;102512.56;6072932;28;20041;-74
2022/01/11 00:03:40;;;;;;;51.55;14.32;;;;;;;3.17;98.44;102517.13;6072900;28;20060;-74
2022/01/11 00:06:54;;;;;;;38.05;12.65;;;;;;;3.21;98.06;102516.94;6071905;28;20034;-74
2022/01/11 00:09:51;;;;;;;45.72;13.82;;;;;;;3.20;98.47;102525.75;6067908;28;20401;-74
2022/01/11 00:12:46;;;;;;;48.05;14.60;;;;;;;3.26;98.14;102520.25;6072848;28;20499;-74
2022/01/11 00:15:42;;;;;;;49.33;12.90;;;;;;;3.32;99.08;102514.78;6060694;28;20054;-74
2022/01/11 00:18:37;;;;;;;55.83;14.70;;;;;;;3.28;98.74;102513.22;6064649;28;20608;-74
2022/01/11 00:21:34;;;;;;;75.63;15.80;;;;;;;3.28;98.78;102520.22;6071444;28;20371;-74
2022/01/11 00:24:30;;;;;;;104.78;19.20;;;;;;;3.19;98.89;102523.16;6071815;28;20408;-74
2022/01/11 00:27:25;;;;;;;103.43;16.75;;;;;;;3.18;98.34;102527.53;6073161;28;20029;-74
2022/01/11 00:30:22;;;;;;;57.10;14.70;;;;;;;3.17;98.80;102525.84;6074381;28;20048;-74
2022/01/11 00:33:25;;;;;;;113.30;17.90;;;;;;;3.19;99.03;102536.25;6078967;28;20036;-74
2022/01/11 00:36:21;;;;;;;87.40;16.77;;;;;;;3.16;98.67;102526.75;6077323;28;20026;-74
2022/01/11 00:39:16;;;;;;;82.27;16.00;;;;;;;3.15;98.29;102527.66;6078844;28;20045;-74
2022/01/11 00:42:13;;;;;;;68.25;15.65;;;;;;;3.12;98.77;102533.00;6067783;28;20037;-74
2022/01/11 00:45:12;;;;;;;91.65;16.23;;;;;;;3.09;98.10;102533.13;6080008;28;20041;-74
2022/01/11 00:48:08;;;;;;;106.22;17.60;;;;;;;3.07;99.17;102539.31;6063616;28;20503;-74
2022/01/11 00:51:03;;;;;;;61.42;15.82;;;;;;;3.06;98.90;102548.09;6079025;28;20041;-74
2022/01/11 00:53:58;;;;;;;61.53;15.17;;;;;;;3.10;98.66;102553.16;6081432;28;20091;-74
2022/01/11 00:56:54;;;;;;;108.60;15.37;;;;;;;3.11;99.16;102554.88;6067214;28;20025;-75
2022/01/11 00:59:49;;;;;;;99.23;17.57;;;;;;;3.02;99.10;102551.72;6077733;28;20508;-74
2022/01/11 01:02:44;;;;;;;77.10;14.27;;;;;;;3.11;98.15;102554.88;6069734;28;20032;-74
2022/01/11 01:05:40;;;;;;;62.63;14.80;;;;;;;3.09;99.00;102559.31;6079874;28;20033;-73
2022/01/11 01:08:35;;;;;;;72.65;16.65;;;;;;;3.13;98.43;102557.44;6081139;28;20037;-74
2022/01/11 01:11:30;;;;;;;65.70;16.03;;;;;;;3.15;98.89;102561.75;6079478;28;20550;-74
2022/01/11 01:14:26;;;;;;;74.65;15.35;;;;;;;3.11;98.72;102567.97;6078567;28;20029;-74
2022/01/11 01:17:21;;;;;;;55.77;13.97;;;;;;;3.12;98.33;102564.47;6080464;28;20087;-74
2022/01/11 01:20:17;;;;;;;87.18;17.55;;;;;;;3.15;98.52;102568.75;6078983;28;20057;-74
2022/01/11 01:23:13;;;;;;;112.20;18.27;;;;;;;3.06;99.20;102569.03;6079544;28;20045;-74
2022/01/11 01:26:09;;;;;;;95.18;16.40;;;;;;;3.00;98.78;102559.63;6070110;28;20041;-74
2022/01/11 01:29:04;;;;;;;66.70;16.08;;;;;;;3.01;98.94;102569.22;6077293;28;20393;-74
2022/01/11 01:32:01;;;;;;;83.10;17.25;;;;;;;2.98;98.39;102575.41;6074290;28;20112;-74
2022/01/11 01:35:01;;;;;;;88.93;16.85;;;;;;;2.97;99.01;102576.31;6079021;28;20040;-74
2022/01/11 01:37:56;;;;;;;66.55;15.93;;;;;;;3.06;99.24;102579.53;6080417;28;20108;-74
2022/01/11 01:40:57;;;;;;;70.50;14.90;;;;;;;3.10;98.40;102581.16;6078637;28;20052;-74
2022/01/11 01:43:55;;;;;;;57.80;13.93;;;;;;;3.07;98.57;102586.50;6071999;28;20049;-74
2022/01/11 01:46:51;;;;;;;82.95;18.15;;;;;;;3.07;98.48;102587.34;6076681;28;20473;-74
2022/01/11 01:49:46;;;;;;;64.00;16.03;;;;;;;3.07;98.49;102586.50;6075670;28;20088;-73
2022/01/11 01:52:41;;;;;;;84.50;16.27;;;;;;;3.06;98.45;102585.63;6076286;28;20061;-74
2022/01/11 01:55:39;;;;;;;56.40;14.67;;;;;;;2.99;98.69;102598.06;6075845;28;20037;-74
2022/01/11 01:58:34;;;;;;;61.42;14.93;;;;;;;2.98;98.54;102588.50;6075327;28;20049;-74
2022/01/11 02:01:32;;;;;;;58.45;15.75;;;;;;;3.02;98.79;102599.72;6074098;28;20461;-74
2022/01/11 02:04:28;;;;;;;59.63;13.75;;;;;;;2.99;98.54;102610.31;6069916;28;20053;-74
2022/01/11 02:07:23;;;;;;;56.47;14.70;;;;;;;2.98;98.34;102601.63;6075064;28;20542;-74
2022/01/11 02:10:18;;;;;;;56.83;15.57;;;;;;;2.98;98.47;102606.00;6070344;28;20041;-74
2022/01/11 02:13:14;;;;;;;56.47;13.33;;;;;;;3.00;98.56;102602.41;6072836;28;20132;-74
2022/01/11 02:16:09;;;;;;;62.70;14.55;;;;;;;2.99;98.54;102610.31;6062597;28;20025;-74
2022/01/11 02:19:05;;;;;;;49.03;12.30;;;;;;;2.97;98.30;102617.38;6075419;28;20021;-74
2022/01/11 02:22:00;;;;;;;49.63;12.98;;;;;;;2.96;98.97;102605.19;6065558;28;20096;-74
2022/01/11 02:24:55;;;;;;;54.73;13.80;;;;;;;2.96;98.79;102627.00;6064066;28;20034;-73
2022/01/11 02:27:51;;;;;;;56.90;13.90;;;;;;;2.93;98.42;102628.88;6072153;28;20116;-74
2022/01/11 02:30:47;;;;;;;46.33;13.77;;;;;;;2.95;98.16;102634.91;6074333;28;20041;-74
2022/01/11 02:33:46;;;;;;;47.17;12.70;;;;;;;2.97;99.13;102635.72;6075618;28;20045;-74
2022/01/11 02:36:41;;;;;;;44.20;13.18;;;;;;;2.93;99.08;102632.34;6075318;28;20041;-74
2022/01/11 02:39:37;;;;;;;70.97;15.40;;;;;;;2.84;98.76;102637.03;6073591;28;20056;-74
2022/01/11 02:42:32;;;;;;;72.53;17.73;;;;;;;2.84;98.40;102626.53;6074272;28;20264;-74
2022/01/11 02:45:27;;;;;;;50.90;14.50;;;;;;;2.85;98.11;102636.13;6075721;28;20108;-74
2022/01/11 02:48:22;;;;;;;55.73;13.83;;;;;;;2.78;98.71;102635.44;6068754;28;20025;-74
2022/01/11 02:51:18;;;;;;;59.03;15.83;;;;;;;2.80;98.66;102641.50;6073852;28;20037;-74
2022/01/11 02:54:13;;;;;;;59.83;15.20;;;;;;;2.81;98.63;102639.72;6074081;28;20538;-74
2022/01/11 02:57:09;;;;;;;57.53;14.68;;;;;;;2.80;98.13;102641.50;6074666;28;20282;-74
2022/01/11 03:00:07;;;;;;;53.90;12.43;;;;;;;2.84;98.42;102642.25;6073445;28;20107;-74
2022/01/11 03:03:17;;;;;;;60.67;13.85;;;;;;;2.86;98.43;102650.91;6072748;28;20550;-74
2022/01/11 03:06:13;;;;;;;46.28;12.70;;;;;;;2.91;98.32;102651.63;6074612;28;20029;-74
2022/01/11 03:09:08;;;;;;;60.67;15.23;;;;;;;2.84;98.94;102647.50;6073535;28;20025;-73
2022/01/11 03:12:04;;;;;;;63.30;14.40;;;;;;;2.84;98.70;102647.50;6073399;28;20037;-74
2022/01/11 03:15:00;;;;;;;63.90;14.27;;;;;;;2.89;98.19;102656.06;6074035;28;20036;-74
2022/01/11 03:17:55;;;;;;;54.10;14.53;;;;;;;2.89;98.23;102650.81;6075280;28;20048;-74
2022/01/11 03:20:52;;;;;;;56.63;16.27;;;;;;;2.91;98.50;102659.47;6073465;28;20160;-73
2022/01/11 03:23:47;;;;;;;63.05;16.85;;;;;;;2.82;98.79;102658.03;6074498;28;20047;-73
2022/01/11 03:26:42;;;;;;;58.28;14.45;;;;;;;2.85;98.16;102662.31;6074217;28;20033;-74
2022/01/11 03:29:39;;;;;;;69.50;15.13;;;;;;;2.92;98.17;102669.94;6073753;28;20029;-74
2022/01/11 03:32:35;;;;;;;64.97;14.75;;;;;;;2.91;97.91;102659.47;6073947;28;20030;-74
2022/01/11 03:35:30;;;;;;;63.73;15.90;;;;;;;2.93;98.51;102662.94;6073191;28;20060;-74
2022/01/11 03:38:25;;;;;;;57.50;14.73;;;;;;;2.94;98.36;102662.00;6074008;28;20057;-73
2022/01/11 03:41:21;;;;;;;63.37;16.50;;;;;;;2.92;98.10;102656.84;6072250;28;20040;-74
2022/01/11 03:44:16;;;;;;;59.97;15.23;;;;;;;2.96;98.19;102668.91;6073527;28;20036;-74
2022/01/11 03:47:11;;;;;;;72.20;15.80;;;;;;;2.92;98.38;102666.44;6074168;28;20040;-74
2022/01/11 03:50:09;;;;;;;63.27;14.37;;;;;;;2.95;98.22;102671.59;6072338;28;20061;-74
2022/01/11 03:53:14;;;;;;;75.28;18.17;;;;;;;2.93;98.33;102668.19;6072665;28;20511;-73
2022/01/11 03:56:21;;;;;;;72.60;17.33;;;;;;;2.89;98.00;102669.16;6073632;28;20404;-74
2022/01/11 03:59:17;;;;;;;71.70;15.90;;;;;;;2.90;98.19;102668.28;6073880;28;20040;-73
2022/01/11 04:02:12;;;;;;;74.65;15.98;;;;;;;2.90;98.36;102665.66;6071752;28;20041;-74
2022/01/11 04:05:08;;;;;;;66.78;15.90;;;;;;;2.89;98.31;102658.69;6072406;28;20380;-73
2022/01/11 04:08:04;;;;;;;63.90;16.77;;;;;;;2.88;97.97;102664.84;6073337;28;20508;-74
2022/01/11 04:10:59;;;;;;;69.20;15.43;;;;;;;2.88;98.50;102664.84;6064734;28;20477;-74
2022/01/11 04:13:55;;;;;;;68.80;16.73;;;;;;;2.91;97.73;102664.72;6072345;28;20033;-74
2022/01/11 04:16:51;;;;;;;76.20;19.40;;;;;;;2.90;97.93;102676.13;6074168;28;20035;-74
2022/01/11 04:19:51;;;;;;;58.65;17.13;;;;;;;2.84;98.20;102669.31;6053410;28;20464;-74
2022/01/11 04:22:47;;;;;;;64.97;17.00;;;;;;;2.86;97.92;102669.25;6059094;28;20041;-74
2022/01/11 04:25:42;;;;;;;50.55;12.73;;;;;;;2.82;98.12;102670.28;6072749;28;20045;-74
2022/01/11 04:28:37;;;;;;;67.80;16.03;;;;;;;2.83;97.58;102678.06;6063678;28;20484;-74
2022/01/11 04:31:33;;;;;;;62.57;15.83;;;;;;;2.81;97.53;102669.41;6072187;28;20052;-74
2022/01/11 04:34:28;;;;;;;65.88;17.88;;;;;;;2.80;97.67;102661.63;6072944;28;20326;-73
2022/01/11 04:37:24;;;;;;;66.68;15.98;;;;;;;2.78;97.68;102671.25;6071093;28;20493;-74
2022/01/11 04:40:19;;;;;;;95.70;18.90;;;;;;;2.67;97.97;102661.13;6065118;28;20038;-73
2022/01/11 04:43:14;;;;;;;75.57;18.33;;;;;;;2.70;97.54;102670.66;6068861;28;20035;-74
2022/01/11 04:46:10;;;;;;;71.50;16.80;;;;;;;2.70;98.00;102671.50;6072235;28;20841;-74
2022/01/11 04:49:05;;;;;;;81.27;16.60;;;;;;;2.71;97.71;102683.72;6072358;28;20291;-73
2022/01/11 04:52:00;;;;;;;86.07;20.17;;;;;;;2.68;97.52;102675.09;6066923;28;20477;-73
2022/01/11 04:54:56;;;;;;;93.20;19.07;;;;;;;2.64;97.95;102670.84;6063609;28;20272;-73
2022/01/11 04:57:51;;;;;;;87.13;19.63;;;;;;;2.60;97.85;102671.84;6073486;28;20408;-73
2022/01/11 05:00:46;;;;;;;92.37;21.13;;;;;;;2.53;97.49;102670.34;6072445;28;20313;-73
2022/01/11 05:03:42;;;;;;;97.63;19.47;;;;;;;2.45;97.44;102667.09;6070331;28;20050;-73
2022/01/11 05:06:37;;;;;;;93.17;18.53;;;;;;;2.36;97.47;102670.84;6072611;28;20072;-73
2022/01/11 05:09:33;;;;;;;90.77;21.17;;;;;;;2.32;97.51;102669.19;6067543;28;20026;-73
2022/01/11 05:12:28;;;;;;;92.53;21.58;;;;;;;2.22;97.80;102666.00;6072032;28;20554;-74
2022/01/11 05:15:25;;;;;;;88.67;20.23;;;;;;;2.15;97.63;102669.69;6067574;28;20550;-74
2022/01/11 05:18:20;;;;;;;76.88;16.77;;;;;;;2.11;97.74;102693.38;6075434;28;20026;-74
2022/01/11 05:21:16;;;;;;;71.23;14.50;;;;;;;2.09;97.76;102688.16;6074355;28;20119;-74
2022/01/11 05:24:11;;;;;;;54.93;14.83;;;;;;;2.15;97.53;102693.22;6074578;28;20284;-74
2022/01/11 05:27:07;;;;;;;40.13;11.17;;;;;;;2.17;98.11;102686.22;6065427;28;20045;-74
2022/01/11 05:30:03;;;;;;;40.55;10.60;;;;;;;2.21;97.75;102705.28;6076693;28;20836;-74
2022/01/11 05:32:59;;;;;;;47.13;12.40;;;;;;;2.28;97.92;102715.53;6076397;28;20075;-73
2022/01/11 05:35:54;;;;;;;47.97;11.60;;;;;;;2.40;98.02;102717.81;6074872;28;20037;-73
2022/01/11 05:38:49;;;;;;;38.20;10.70;;;;;;;2.49;97.95;102718.44;6076158;28;20364;-74
2022/01/11 05:41:45;;;;;;;43.47;10.43;;;;;;;2.62;98.35;102717.16;6076563;28;20040;-74
2022/01/11 05:44:40;;;;;;;52.43;12.87;;;;;;;2.69;98.46;102716.94;6076855;28;20041;-74
2022/01/11 05:47:36;;;;;;;58.10;14.03;;;;;;;2.64;97.90;102720.59;6064274;28;20346;-74
2022/01/11 05:50:31;;;;;;;60.63;15.00;;;;;;;2.71;97.49;102719.50;6073981;28;20284;-74
2022/01/11 05:53:27;;;;;;;78.03;16.20;;;;;;;2.62;97.92;102723.25;6062904;28;20072;-73
2022/01/11 05:56:22;;;;;;;65.43;15.55;;;;;;;2.63;98.51;102714.50;6076485;28;20401;-74
2022/01/11 05:59:17;;;;;;;75.60;17.77;;;;;;;2.64;97.89;102712.72;6077153;28;20037;-74
2022/01/11 06:02:13;;;;;;;82.60;18.17;;;;;;;2.67;98.10;102725.72;6075989;28;20295;-73
2022/01/11 06:05:08;;;;;;;82.90;20.33;;;;;;;2.66;97.93;102721.41;6076595;28;20045;-73
2022/01/11 06:08:07;;;;;;;68.97;16.58;;;;;;;2.61;97.20;102728.56;6075495;28;20029;-73
2022/01/11 06:11:03;;;;;;;76.22;19.00;;;;;;;2.56;98.19;102728.69;6075673;28;20029;-74
2022/01/11 06:13:58;;;;;;;81.60;20.75;;;;;;;2.53;97.94;102720.91;6075122;28;20030;-73
2022/01/11 06:16:54;;;;;;;82.53;20.50;;;;;;;2.60;98.00;102738.16;6068095;28;20048;-73
2022/01/11 06:19:49;;;;;;;95.63;19.87;;;;;;;2.62;98.25;102738.13;6072216;28;20037;-74
2022/01/11 06:22:44;;;;;;;79.45;18.60;;;;;;;2.65;97.84;102746.75;6068955;28;20033;-73
2022/01/11 06:25:40;;;;;;;81.07;19.87;;;;;;;2.59;97.42;102741.69;6068870;28;20037;-74
2022/01/11 06:28:35;;;;;;;89.88;22.27;;;;;;;2.56;97.48;102747.00;6063505;28;20036;-73
2022/01/11 06:31:32;;;;;;;105.00;25.23;;;;;;;2.56;98.04;102748.75;6075351;28;20033;-74
2022/01/11 06:34:28;;;;;;;100.82;23.23;;;;;;;2.53;97.98;102746.25;6068648;28;20160;-74
2022/01/11 06:37:23;;;;;;;101.03;21.90;;;;;;;2.55;97.89;102754.91;6068932;28;20396;-74
2022/01/11 06:40:20;;;;;;;98.47;21.07;;;;;;;2.53;97.64;102751.50;6068607;28;20044;-74
2022/01/11 06:43:15;;;;;;;103.30;24.58;;;;;;;2.52;98.12;102749.78;6074724;28;20396;-73
2022/01/11 06:46:10;;;;;;;96.20;22.57;;;;;;;2.47;97.98;102747.28;6072841;28;20038;-74
2022/01/11 06:49:06;;;;;;;103.07;21.50;;;;;;;2.45;97.94;102753.47;6066261;28;20049;-74
2022/01/11 06:52:01;;;;;;;98.17;22.97;;;;;;;2.49;98.13;102760.31;6071005;28;20659;-74
2022/01/11 06:54:57;;;;;;;87.80;22.35;;;;;;;2.45;98.32;102769.19;6067378;28;20040;-74
2022/01/11 06:57:52;;;;;;;81.73;21.57;;;;;;;2.47;98.14;102767.38;6063031;28;20033;-73
2022/01/11 07:00:48;;;;;;;78.97;19.08;;;;;;;2.36;98.52;102765.91;6072786;28;20026;-73
2022/01/11 07:03:44;;;;;;;85.72;20.33;;;;;;;2.30;98.02;102773.09;6066024;28;20045;-73
2022/01/11 07:06:39;;;;;;;74.05;19.55;;;;;;;2.28;98.33;102770.50;6071054;28;20033;-74
2022/01/11 07:09:35;;;;;;;82.97;20.50;;;;;;;2.31;97.91;102775.63;6065321;28;20072;-73
2022/01/11 07:12:30;;;;;;;81.63;18.83;;;;;;;2.28;97.95;102775.72;6069823;28;20025;-73
2022/01/11 07:15:25;;;;;;;80.27;20.27;;;;;;;2.33;98.32;102793.94;6072382;28;20455;-73
2022/01/11 07:18:21;;;;;;;86.50;22.30;;;;;;;2.32;98.25;102795.69;6066801;28;20473;-74
2022/01/11 07:21:16;;;;;;;86.47;20.00;;;;;;;2.33;98.22;102805.28;6071492;28;20042;-73
2022/01/11 07:24:16;;;;;;;82.87;19.23;;;;;;;2.24;98.09;102802.91;6072025;28;20307;-74
2022/01/11 07:27:11;;;;;;;70.65;19.50;;;;;;;2.24;97.68;102805.50;6071683;28;20044;-73
2022/01/11 07:30:08;;;;;;;67.97;18.95;;;;;;;2.15;97.67;102797.03;6071912;28;20392;-73
2022/01/11 07:33:03;;;;;;;93.88;22.75;;;;;;;2.14;98.00;102811.03;6072604;28;20083;-73
2022/01/11 07:35:59;;;;;;;88.93;20.37;;;;;;;2.17;97.53;102810.97;6070064;28;20432;-73
2022/01/11 07:38:54;;;;;;;102.40;23.52;;;;;;;2.19;97.83;102804.78;6067659;28;20432;-74
2022/01/11 07:41:50;;;;;;;87.93;22.87;;;;;;;2.22;97.75;102804.72;6068529;28;20086;-73
2022/01/11 07:44:48;;;;;;;91.43;23.42;;;;;;;2.22;97.74;102799.47;6071218;28;20026;-73
2022/01/11 07:47:43;;;;;;;94.93;24.98;;;;;;;2.19;98.11;102802.16;6071553;28;20037;-73
2022/01/11 07:50:38;;;;;;;91.45;23.42;;;;;;;2.20;97.52;102809.09;6069886;28;20043;-72
2022/01/11 07:53:34;;;;;;;84.57;20.37;;;;;;;2.17;98.32;102817.06;6066029;28;20037;-73
2022/01/11 07:56:29;;;;;;;87.90;20.07;;;;;;;2.16;98.03;102817.09;6072354;28;20037;-73
2022/01/11 07:59:24;;;;;;;93.67;21.53;;;;;;;2.18;97.81;102816.13;6069643;28;20408;-73
2022/01/11 08:02:21;;;;;;;89.83;21.20;;;;;;;2.25;98.19;102809.84;6061104;28;20038;-74
2022/01/11 08:05:18;;;;;;;81.97;20.38;;;;;;;2.27;97.73;102820.28;6067991;28;20044;-73
2022/01/11 08:08:13;;;;;;;76.90;18.75;;;;;;;2.29;98.25;102832.41;6070693;28;20041;-73
2022/01/11 08:11:10;;;;;;;75.73;18.00;;;;;;;2.22;97.94;102828.25;6069969;28;20447;-73
2022/01/11 08:14:06;;;;;;;82.95;20.88;;;;;;;2.33;97.96;102834.06;6072456;28;20029;-73
2022/01/11 08:17:01;;;;;;;80.70;21.53;;;;;;;2.19;97.42;102828.34;6062807;28;20040;-73
2022/01/11 08:19:57;;;;;;;95.18;21.65;;;;;;;2.11;98.15;102839.91;6064694;28;20084;-73
2022/01/11 08:22:54;;;;;;;74.38;17.30;;;;;;;2.19;97.88;102846.66;6062596;28;20095;-73
2022/01/11 08:25:49;;;;;;;71.38;17.40;;;;;;;2.37;98.49;102843.53;6067752;28;20029;-74
2022/01/11 08:28:44;;;;;;;61.57;17.30;;;;;;;2.50;98.16;102846.66;6071611;28;20044;-73
2022/01/11 08:31:40;;;;;;;51.97;15.40;;;;;;;2.49;97.97;102844.09;6067813;28;20037;-73
2022/01/11 08:34:36;;;;;;;60.60;15.75;;;;;;;2.16;97.90;102851.97;6063860;28;20717;-73
2022/01/11 08:37:31;;;;;;;60.22;16.00;;;;;;;2.34;97.80;102855.84;6062597;28;20462;-73
2022/01/11 08:40:26;;;;;;;71.53;19.70;;;;;;;2.20;97.79;102848.34;6058493;28;20041;-73
2022/01/11 08:43:22;;;;;;;68.05;18.13;;;;;;;2.14;97.32;102847.66;6069793;28;20033;-73
2022/01/11 08:46:17;;;;;;;57.67;17.93;;;;;;;2.26;97.28;102849.94;6065934;28;20044;-73
2022/01/11 08:49:13;;;;;;;66.20;18.37;;;;;;;2.21;97.77;102842.22;6063696;28;20291;-73
2022/01/11 08:52:09;;;;;;;63.53;18.77;;;;;;;2.29;97.62;102855.09;6061520;28;20396;-73
2022/01/11 08:55:07;;;;;;;58.45;16.33;;;;;;;2.45;97.57;102845.09;6074893;28;20037;-73
2022/01/11 08:58:02;;;;;;;54.95;15.07;;;;;;;2.38;97.68;102849.63;6072783;28;20384;-73
2022/01/11 09:00:57;;;;;;;66.32;18.65;;;;;;;2.37;97.55;102850.53;6074943;28;20040;-73
2022/01/11 09:03:53;;;;;;;65.37;17.03;;;;;;;2.20;97.46;102848.34;6063597;28;20116;-73
2022/01/11 09:06:50;;;;;;;75.55;17.73;;;;;;;2.13;97.85;102852.03;6076425;28;20036;-73
2022/01/11 09:09:45;;;;;;;54.28;14.38;;;;;;;2.23;97.39;102852.66;6092867;28;20389;-73
2022/01/11 09:12:41;;;;;;;50.10;14.23;;;;;;;2.33;97.07;102854.16;6075122;28;20029;-73
2022/01/11 09:15:36;;;;;;;68.47;16.40;;;;;;;2.39;97.20;102848.75;6070960;28;20034;-73
2022/01/11 09:18:32;;;;;;;61.10;16.93;;;;;;;2.34;97.38;102850.59;6076222;28;20065;-73
2022/01/11 09:21:28;;;;;;;66.82;16.73;;;;;;;2.21;97.08;102844.84;6059048;28;20091;-73
2022/01/11 09:24:29;;;;;;;55.20;16.37;;;;;;;2.35;97.09;102853.19;6076503;28;20041;-73
2022/01/11 09:27:24;;;;;;;69.35;17.10;;;;;;;2.28;97.09;102861.25;6072543;28;20429;-73
2022/01/11 09:30:20;;;;;;;66.23;18.47;;;;;;;2.25;97.16;102870.06;6067975;28;20035;-73
2022/01/11 09:33:15;;;;;;;58.05;15.57;;;;;;;2.42;97.58;102866.13;6066878;28;20030;-73
2022/01/11 09:36:11;;;;;;;52.08;15.75;;;;;;;2.48;97.14;102873.78;6073508;28;20684;-73
2022/01/11 09:39:06;;;;;;;65.70;17.10;;;;;;;2.30;96.74;102883.88;6075585;28;20148;-73
2022/01/11 09:42:05;;;;;;;71.53;19.33;;;;;;;2.22;96.74;102883.22;6075781;28;20044;-73
2022/01/11 09:45:01;;;;;;;52.13;14.52;;;;;;;2.32;96.98;102882.06;6062429;28;20041;-74
2022/01/11 09:47:56;;;;;;;56.72;14.93;;;;;;;2.36;96.91;102881.06;6066807;28;20056;-73
2022/01/11 09:50:51;;;;;;;53.75;14.00;;;;;;;2.57;97.19;102881.41;6069323;28;20033;-74
2022/01/11 09:53:47;;;;;;;62.53;16.25;;;;;;;2.54;96.75;102879.75;6071306;28;20465;-73
2022/01/11 09:56:42;;;;;;;53.70;14.03;;;;;;;2.42;96.43;102875.69;6075397;28;20397;-73
2022/01/11 09:59:39;;;;;;;67.10;16.97;;;;;;;2.37;96.61;102876.72;6074412;28;20038;-73
2022/01/11 10:02:34;;;;;;;83.00;20.90;;;;;;;2.21;96.69;102868.41;6069067;28;20068;-73
2022/01/11 10:05:30;;;;;;;81.28;20.60;;;;;;;2.21;96.29;102860.56;6067383;28;20034;-73
2022/01/11 10:08:31;;;;;;;73.47;18.48;;;;;;;2.28;96.68;102871.72;6075133;28;20464;-73
2022/01/11 10:11:42;;;;;;;73.72;16.98;;;;;;;2.31;96.92;102861.19;6061810;28;20038;-73
2022/01/11 10:14:44;;;;;;;75.18;16.15;;;;;;;2.36;97.13;102869.78;6068874;28;20105;-73
2022/01/11 10:17:42;;;;;;;83.18;19.15;;;;;;;2.40;96.37;102861.78;6069149;28;20040;-73
2022/01/11 10:20:38;;;;;;;77.45;18.75;;;;;;;2.47;97.32;102859.00;6067241;28;20025;-73
2022/01/11 10:23:34;;;;;;;74.53;17.63;;;;;;;2.40;96.85;102864.41;6072310;28;20033;-73
2022/01/11 10:26:43;;;;;;;77.68;19.50;;;;;;;2.32;96.77;102861.13;6069791;28;20033;-73
2022/01/11 10:29:43;;;;;;;73.57;20.33;;;;;;;2.40;96.90;102867.03;6073682;28;20033;-73
2022/01/11 10:32:45;;;;;;;78.70;23.02;;;;;;;2.26;96.84;102858.66;6067388;28;20441;-73
2022/01/11 10:35:44;;;;;;;65.40;18.38;;;;;;;2.34;96.76;102855.84;6070365;28;21636;-73
2022/01/11 10:38:39;;;;;;;81.65;20.83;;;;;;;2.39;96.50;102862.66;6071866;28;20038;-73
2022/01/11 10:41:41;;;;;;;88.40;27.87;;;;;;;2.44;96.67;102848.63;6067611;28;20029;-73
2022/01/11 10:44:53;;;;;;;84.07;21.10;;;;;;;2.61;96.74;102856.88;6065227;28;20061;-73
2022/01/11 10:47:52;;;;;;;80.03;18.55;;;;;;;2.65;96.73;102855.88;6074367;28;20029;-74
2022/01/11 10:50:49;;;;;;;85.88;23.05;;;;;;;2.61;96.53;102859.50;6067179;28;20037;-73
2022/01/11 10:53:49;;;;;;;78.53;20.38;;;;;;;2.52;96.38;102871.06;6060586;28;20053;-73
2022/01/11 10:56:44;;;;;;;81.45;19.13;;;;;;;2.52;96.27;102868.47;6073720;28;20033;-73
2022/01/11 10:59:39;;;;;;;63.20;18.17;;;;;;;2.63;96.29;102861.16;6068970;28;20472;-73
2022/01/11 11:02:35;;;;;;;55.90;15.63;;;;;;;2.55;96.45;102867.50;6065545;28;20065;-74
2022/01/11 11:05:40;;;;;;;69.35;16.40;;;;;;;2.68;95.97;102866.28;6074343;28;20033;-73
2022/01/11 11:08:39;;;;;;;74.22;17.10;;;;;;;2.85;96.43;102866.66;6063298;28;20057;-74
2022/01/11 11:11:34;;;;;;;77.07;24.15;;;;;;;2.87;96.27;102857.00;6057535;28;20056;-74
2022/01/11 11:14:53;;;;;;;72.37;19.00;;;;;;;2.73;95.40;102864.38;6068677;28;20038;-73
2022/01/11 11:17:48;;;;;;;64.90;18.38;;;;;;;2.92;95.59;102869.06;6059388;28;20504;-73
2022/01/11 11:20:45;;;;;;;72.80;19.73;;;;;;;3.13;95.11;102870.19;6055167;28;20075;-74
2022/01/11 11:23:40;;;;;;;70.80;20.48;;;;;;;3.05;95.06;102869.53;6065641;28;20037;-74
2022/01/11 11:26:46;;;;;;;77.93;21.38;;;;;;;3.08;93.98;102868.59;6073678;28;20503;-74
2022/01/11 11:29:42;;;;;;;80.55;20.08;;;;;;;3.01;93.64;102865.31;6064456;28;20857;-73
2022/01/11 11:32:37;;;;;;;74.75;19.83;;;;;;;2.90;94.18;102870.00;6073350;28;20033;-73
2022/01/11 11:35:33;;;;;;;85.43;21.50;;;;;;;2.95;94.15;102868.09;6067888;28;20116;-73
2022/01/11 11:38:32;;;;;;;74.90;19.63;;;;;;;3.06;94.21;102867.78;6073302;28;20030;-73
2022/01/11 11:41:28;;;;;;;83.97;22.23;;;;;;;3.02;94.55;102872.25;6063479;28;20025;-73
2022/01/11 11:44:25;;;;;;;72.60;20.40;;;;;;;2.89;93.37;102871.75;6073188;28;20096;-73
2022/01/11 11:47:32;;;;;;;59.25;19.00;;;;;;;2.92;93.37;102870.81;6067744;28;20067;-73
2022/01/11 11:50:27;;;;;;;62.05;17.17;;;;;;;3.12;93.46;102876.34;6065399;28;20025;-73
2022/01/11 11:53:32;;;;;;;76.40;21.17;;;;;;;3.04;93.07;102875.72;6072959;28;20037;-72
2022/01/11 11:56:29;;;;;;;59.90;17.15;;;;;;;3.04;93.13;102866.97;6070198;28;20066;-73
2022/01/11 11:59:24;;;;;;;64.82;20.08;;;;;;;2.90;92.80;102867.38;6073343;28;20112;-74
2022/01/11 12:02:38;;;;;;;65.53;18.05;;;;;;;3.06;92.79;102875.66;6071177;28;20060;-73
2022/01/11 12:05:38;;;;;;;67.70;16.45;;;;;;;3.24;93.08;102873.34;6070923;28;20696;-73
2022/01/11 12:08:38;;;;;;;58.50;18.10;;;;;;;3.36;93.28;102872.97;6070404;28;20033;-73
2022/01/11 12:11:38;;;;;;;63.78;18.38;;;;;;;3.39;91.56;102857.16;6072681;28;20048;-72
2022/01/11 12:14:36;;;;;;;72.40;18.73;;;;;;;3.25;91.93;102856.72;6072383;28;20079;-73
2022/01/11 12:17:31;;;;;;;55.15;16.90;;;;;;;3.21;92.05;102862.94;6072497;28;20026;-73
2022/01/11 12:20:49;;;;;;;61.10;17.23;;;;;;;3.20;91.62;102861.25;6070717;28;20040;-73
2022/01/11 12:23:47;;;;;;;61.63;17.10;;;;;;;3.30;91.41;102865.28;6067095;28;20040;-73
2022/01/11 12:26:56;;;;;;;63.00;16.98;;;;;;;3.41;91.80;102850.09;6066426;28;20040;-73
2022/01/11 12:29:55;;;;;;;56.20;18.02;;;;;;;3.47;91.29;102854.28;6070337;28;20488;-73
2022/01/11 12:33:09;;;;;;;54.85;15.52;;;;;;;3.34;90.85;102859.03;6069317;28;20115;-73
2022/01/11 12:36:04;;;;;;;;;;;;;;;3.32;91.03;102855.63;6064834;28;20037;-73
2022/01/11 12:39:04;;;;;;;57.57;20.07;;;;;;;3.25;91.92;102854.09;6071324;28;19928;-73
2022/01/11 12:42:00;;;;;;;45.08;12.70;;;;;;;3.28;91.74;102859.25;6067348;28;20033;-73
2022/01/11 12:47:51;;;;;;;61.17;17.10;;;;;;;3.19;90.99;102854.28;6071263;28;20116;-73
2022/01/11 12:50:58;;;;;;;47.72;17.55;;;;;;;3.04;91.58;102843.41;6066208;28;20032;-73
2022/01/11 12:54:12;;;;;;;49.17;17.00;;;;;;;3.04;91.19;102839.03;6069835;28;20037;-73
2022/01/11 12:57:12;;;;;;;63.45;18.83;;;;;;;3.18;91.86;102843.84;6068399;28;20111;-73
2022/01/11 13:00:10;;;;;;;52.08;15.85;;;;;;;3.07;91.33;102841.56;6071316;28;20197;-73
2022/01/11 13:03:05;;;;;;;49.78;17.02;;;;;;;3.17;91.67;102837.75;6061325;28;20107;-73
2022/01/11 13:06:00;;;;;;;58.77;15.17;;;;;;;3.24;90.27;102847.13;6069944;28;20074;-73
2022/01/11 13:08:57;;;;;;;53.17;16.77;;;;;;;3.43;89.74;102847.41;6072115;28;20159;-73
2022/01/11 13:11:53;;;;;;;45.15;13.98;;;;;;;3.27;90.01;102839.16;6070194;28;20099;-74
2022/01/11 13:14:57;;;;;;;52.60;15.73;;;;;;;3.45;90.51;102833.34;6064199;28;20033;-73
2022/01/11 13:18:07;;;;;;;52.85;15.57;;;;;;;3.78;89.44;102839.28;6058067;28;20043;-73
2022/01/11 13:21:04;;;;;;;50.75;18.65;;;;;;;3.83;88.97;102831.28;6067056;28;20057;-73
2022/01/11 13:24:11;;;;;;;59.03;17.63;;;;;;;3.73;88.40;102843.81;6066861;28;20037;-75
2022/01/11 13:27:08;;;;;;;53.22;18.67;;;;;;;3.59;89.52;102839.00;6064526;28;20484;-73
2022/01/11 13:30:04;;;;;;;54.58;16.05;;;;;;;3.33;89.79;102835.50;6068183;28;20052;-73
2022/01/11 13:32:59;;;;;;;50.47;16.35;;;;;;;3.16;90.25;102837.78;6063969;28;20034;-73
2022/01/11 13:36:15;;;;;;;55.00;16.27;;;;;;;3.12;90.46;102831.78;6070089;28;20037;-74